SCCI 241500Z 30005KT 9999 FEW012 BKN110 04/04 Q0996 NOSIG